Time;durP1;ratioP1;P1;durP2;ratioP2;P2;SDS_P1;SDS_P2;PMS_P1;PMS_P2;Temp;Humidity;BMP_temperature;BMP_pressure;BME280_temperature;BME280_humidity;BME280_pressure;Samples;Min_cycle;Max_cycle;Signal;HPM_P1;HPM_P2
2024/03/07 00:04:48;;;;;;;22.50;14.50;;;;;;;2.52;81.53;100725.36;218533;1260;140825;-71
2024/03/07 00:09:53;;;;;;;31.30;17.10;;;;;;;2.49;81.52;100729.04;216913;1262;140399;-71
2024/03/07 00:14:58;;;;;;;30.70;16.40;;;;;;;2.48;81.64;100728.56;218453;1260;142265;-71
2024/03/07 00:20:04;;;;;;;29.60;16.50;;;;;;;2.48;81.57;100728.44;216986;1260;140227;-73
2024/03/07 00:25:09;;;;;;;24.60;15.30;;;;;;;2.47;81.86;100723.96;217507;1261;140651;-71
2024/03/07 00:30:29;;;;;;;36.40;19.40;;;;;;;2.45;81.54;100722.02;216731;1263;140881;-71
2024/03/07 00:35:33;;;;;;;33.80;17.90;;;;;;;2.46;81.85;100724.08;217780;1261;141682;-71
2024/03/07 00:40:38;;;;;;;28.30;17.70;;;;;;;2.45;82.05;100722.17;216760;1264;139554;-72
2024/03/07 00:45:43;;;;;;;29.40;17.00;;;;;;;2.47;82.05;100720.44;216882;1261;141103;-72
2024/03/07 00:50:47;;;;;;;34.80;18.00;;;;;;;2.47;82.04;100716.08;217091;1260;140101;-72
2024/03/07 00:55:53;;;;;;;37.80;16.60;;;;;;;2.46;82.18;100716.39;218063;1261;141293;-74
2024/03/07 01:01:00;;;;;;;32.60;17.80;;;;;;;2.44;82.30;100724.44;216664;1262;140899;-74
2024/03/07 01:06:03;;;;;;;36.80;19.30;;;;;;;2.44;82.50;100726.23;216853;1262;141411;-76
2024/03/07 01:11:12;;;;;;;28.00;17.00;;;;;;;2.43;82.41;100723.67;216907;1262;140231;-74
2024/03/07 01:16:17;;;;;;;29.90;17.00;;;;;;;2.42;82.75;100723.77;216812;1265;140586;-73
2024/03/07 01:21:21;;;;;;;25.80;15.70;;;;;;;2.41;82.64;100719.91;216797;1259;140907;-72
2024/03/07 01:26:28;;;;;;;37.00;18.40;;;;;;;2.37;82.75;100718.31;217048;1264;139792;-74
2024/03/07 01:31:32;;;;;;;37.50;19.30;;;;;;;2.34;82.72;100720.34;217665;1263;140168;-73
2024/03/07 01:36:37;;;;;;;29.30;16.80;;;;;;;2.33;82.83;100720.14;217544;1260;141402;-75
2024/03/07 01:41:41;;;;;;;33.00;18.90;;;;;;;2.32;83.05;100723.06;217044;1260;140271;-71
2024/03/07 01:46:45;;;;;;;32.90;17.40;;;;;;;2.31;83.19;100722.59;216974;1261;140653;-74
2024/03/07 01:51:50;;;;;;;31.00;17.60;;;;;;;2.31;83.11;100723.31;217115;1263;140054;-71
2024/03/07 01:56:55;;;;;;;34.50;19.60;;;;;;;2.28;83.04;100723.92;218005;1260;141480;-74
2024/03/07 02:02:02;;;;;;;31.10;18.80;;;;;;;2.27;83.05;100724.05;217972;1259;140046;-72
2024/03/07 02:07:11;;;;;;;29.20;18.50;;;;;;;2.27;83.04;100725.00;217677;1260;143470;-71
2024/03/07 02:12:15;;;;;;;33.40;19.40;;;;;;;2.28;83.36;100726.75;217197;1259;143318;-72
2024/03/07 02:17:20;;;;;;;36.10;18.40;;;;;;;2.30;83.32;100720.28;216964;1259;140124;-72
2024/03/07 02:22:26;;;;;;;29.60;18.70;;;;;;;2.27;82.93;100720.06;216929;1263;141153;-72
2024/03/07 02:27:31;;;;;;;32.50;19.70;;;;;;;2.25;83.07;100721.83;216880;1261;141451;-71
2024/03/07 02:32:37;;;;;;;35.40;19.20;;;;;;;2.24;83.09;100717.05;216944;1262;141698;-71
2024/03/07 02:37:40;;;;;;;33.80;18.10;;;;;;;2.22;82.99;100713.86;217007;1262;141086;-74
2024/03/07 02:42:45;;;;;;;28.60;16.10;;;;;;;2.20;83.08;100710.76;216997;1259;140167;-72
2024/03/07 02:47:49;;;;;;;29.70;17.20;;;;;;;2.19;82.65;100708.12;216772;1263;141014;-73
2024/03/07 02:52:56;;;;;;;27.90;17.60;;;;;;;2.15;82.48;100705.73;216963;1261;140498;-75
2024/03/07 02:58:01;;;;;;;28.80;17.00;;;;;;;2.12;82.32;100706.00;217913;1262;140312;-72
2024/03/07 03:03:05;;;;;;;26.80;16.80;;;;;;;2.13;82.17;100706.66;217196;1260;140202;-73
2024/03/07 03:08:09;;;;;;;30.80;16.80;;;;;;;2.14;82.31;100707.25;216914;1259;140536;-75
2024/03/07 03:13:15;;;;;;;30.00;16.50;;;;;;;2.14;82.20;100708.78;217064;1259;140101;-72
2024/03/07 03:18:20;;;;;;;27.80;15.90;;;;;;;2.14;81.87;100710.04;216816;1259;140411;-73
2024/03/07 03:23:25;;;;;;;23.80;15.30;;;;;;;2.13;81.62;100709.91;216954;1264;141009;-72
2024/03/07 03:28:29;;;;;;;33.80;16.00;;;;;;;2.11;81.44;100706.81;217018;1259;141072;-72
2024/03/07 03:33:35;;;;;;;28.50;15.70;;;;;;;2.08;81.31;100713.27;217000;1260;140707;-72
2024/03/07 03:38:41;;;;;;;25.40;17.30;;;;;;;2.07;80.98;100715.00;217177;1263;140502;-72
2024/03/07 03:43:47;;;;;;;23.10;16.60;;;;;;;2.05;80.71;100715.71;219892;1259;140735;-74
2024/03/07 03:48:52;;;;;;;24.70;17.10;;;;;;;2.05;80.85;100719.92;220024;1259;140780;-74
2024/03/07 03:53:56;;;;;;;28.40;18.80;;;;;;;2.06;80.74;100718.52;218254;1259;141617;-72
2024/03/07 03:59:00;;;;;;;24.90;14.90;;;;;;;2.07;80.41;100719.38;216976;1263;140991;-72
2024/03/07 04:04:05;;;;;;;24.60;16.80;;;;;;;2.07;80.37;100715.50;216974;1259;140711;-71
2024/03/07 04:09:09;;;;;;;22.20;13.70;;;;;;;2.07;80.48;100717.94;216879;1259;140270;-72
2024/03/07 04:14:13;;;;;;;25.00;15.20;;;;;;;2.06;80.40;100718.52;217984;1259;140611;-71
2024/03/07 04:19:20;;;;;;;24.10;14.60;;;;;;;2.03;80.51;100721.09;217711;1262;141858;-71
2024/03/07 04:24:25;;;;;;;28.20;17.60;;;;;;;1.97;80.11;100718.52;216995;1263;140212;-71
2024/03/07 04:29:30;;;;;;;26.60;16.60;;;;;;;1.92;80.26;100719.05;216814;1262;139923;-72
2024/03/07 04:34:36;;;;;;;31.10;15.70;;;;;;;1.86;79.87;100724.39;216971;1263;140239;-72
2024/03/07 04:39:41;;;;;;;20.90;15.10;;;;;;;1.80;80.29;100724.17;216974;1259;140116;-73
2024/03/07 04:44:46;;;;;;;27.60;18.20;;;;;;;1.71;80.16;100729.27;216966;1259;140328;-71
2024/03/07 04:49:51;;;;;;;25.70;17.10;;;;;;;1.64;80.07;100731.14;216938;1259;140394;-71
2024/03/07 04:54:59;;;;;;;28.10;16.80;;;;;;;1.57;80.07;100726.81;217241;1264;140336;-70
2024/03/07 05:00:05;;;;;;;30.20;16.00;;;;;;;1.48;80.27;100729.09;216990;1262;143107;-69
2024/03/07 05:05:09;;;;;;;31.30;17.50;;;;;;;1.41;80.08;100734.34;216936;1259;140788;-70
2024/03/07 05:10:12;;;;;;;29.70;17.60;;;;;;;1.36;80.44;100738.86;217029;1263;141533;-72
2024/03/07 05:15:17;;;;;;;29.30;18.10;;;;;;;1.32;80.19;100739.80;216908;1259;141167;-74
2024/03/07 05:20:21;;;;;;;29.40;18.20;;;;;;;1.29;80.42;100743.59;216879;1259;230706;-72
2024/03/07 05:25:24;;;;;;;38.10;19.00;;;;;;;1.26;80.79;100748.21;216961;1262;140846;-72
2024/03/07 05:30:29;;;;;;;34.70;19.50;;;;;;;1.27;80.89;100754.83;216650;1259;465232;-72
2024/03/07 05:35:33;;;;;;;32.10;18.20;;;;;;;1.25;80.79;100758.48;217262;1259;139930;-72
2024/03/07 05:40:38;;;;;;;28.60;16.40;;;;;;;1.25;80.92;100761.11;219980;1259;140409;-71
2024/03/07 05:45:42;;;;;;;36.00;22.90;;;;;;;1.26;80.95;100767.48;219862;1259;141063;-72
2024/03/07 05:50:47;;;;;;;36.10;18.20;;;;;;;1.30;81.19;100768.52;220018;1259;140528;-71
2024/03/07 05:55:52;;;;;;;37.90;19.70;;;;;;;1.34;81.03;100767.93;219850;1259;140930;-71
2024/03/07 06:00:56;;;;;;;29.90;15.80;;;;;;;1.42;80.97;100769.36;218500;1260;141664;-71
2024/03/07 06:06:01;;;;;;;28.90;18.00;;;;;;;1.50;80.83;100775.88;217518;1259;141900;-73
2024/03/07 06:11:06;;;;;;;22.60;15.40;;;;;;;1.61;80.70;100779.80;217027;1259;141133;-71
2024/03/07 06:16:12;;;;;;;23.60;15.70;;;;;;;1.68;80.54;100785.09;217059;1260;140634;-71
2024/03/07 06:21:20;;;;;;;26.60;15.40;;;;;;;1.78;80.50;100783.30;217482;1263;139782;-71
2024/03/07 06:32:00;;;;;;;25.50;14.90;;;;;;;1.85;79.62;100790.40;217500;1262;222742;-71
2024/03/07 06:37:08;;;;;;;20.80;12.50;;;;;;;1.89;79.21;100800.36;217169;1259;141032;-71
2024/03/07 06:42:13;;;;;;;22.50;13.60;;;;;;;1.95;78.92;100803.44;216931;1259;140007;-72
2024/03/07 06:47:18;;;;;;;21.50;13.50;;;;;;;2.00;78.85;100806.31;217065;1259;140720;-70
2024/03/07 06:52:22;;;;;;;30.60;16.20;;;;;;;2.03;78.56;100807.41;216974;1263;140465;-70
2024/03/07 06:57:27;;;;;;;28.60;15.10;;;;;;;2.08;78.68;100805.29;218008;1259;141030;-71
2024/03/07 07:02:33;;;;;;;25.90;16.20;;;;;;;2.18;78.63;100806.52;217326;1263;139951;-72
2024/03/07 07:07:44;;;;;;;26.00;18.30;;;;;;;2.28;78.22;100806.63;217134;1259;140216;-74
2024/03/07 07:12:49;;;;;;;27.10;16.50;;;;;;;2.30;78.25;100810.92;217066;1263;139784;-73
2024/03/07 07:17:54;;;;;;;26.70;18.10;;;;;;;2.50;78.18;100814.02;218477;1259;140421;-74
2024/03/07 07:23:00;;;;;;;23.80;14.00;;;;;;;3.09;77.81;100813.34;217022;1263;139946;-73
2024/03/07 07:28:04;;;;;;;25.60;14.70;;;;;;;3.98;77.47;100807.67;216881;1263;141234;-73
2024/03/07 07:33:09;;;;;;;27.50;18.00;;;;;;;4.84;76.78;100811.14;217021;1259;140467;-73
2024/03/07 07:38:14;;;;;;;24.90;14.70;;;;;;;5.73;76.11;100807.37;219710;1258;142346;-73
2024/03/07 07:43:19;;;;;;;21.70;13.30;;;;;;;6.32;74.85;100807.55;219451;1258;139852;-73
2024/03/07 07:48:41;;;;;;;25.50;15.70;;;;;;;6.47;73.74;100810.14;218519;1259;140719;-73
2024/03/07 07:53:45;;;;;;;25.30;15.10;;;;;;;6.57;72.49;100810.23;217503;1260;139130;-72
2024/03/07 07:58:51;;;;;;;16.50;13.40;;;;;;;6.28;71.75;100802.36;217088;1260;139438;-75
2024/03/07 08:03:56;;;;;;;23.10;12.90;;;;;;;6.16;71.96;100796.51;217040;1263;140282;-73
2024/03/07 08:09:09;;;;;;;18.80;12.40;;;;;;;6.00;71.61;100798.95;216822;1263;139855;-72
2024/03/07 08:14:14;;;;;;;25.90;15.10;;;;;;;5.65;70.82;100798.61;217211;1263;139662;-71
2024/03/07 08:19:19;;;;;;;24.00;13.50;;;;;;;5.31;71.10;100804.12;216936;1260;140073;-75
2024/03/07 08:24:24;;;;;;;20.50;13.20;;;;;;;4.98;70.93;100796.84;216959;1263;140467;-73
2024/03/07 08:29:29;;;;;;;23.90;14.50;;;;;;;4.88;71.06;100799.81;216976;1262;139878;-75
2024/03/07 08:34:34;;;;;;;21.70;13.80;;;;;;;4.96;71.26;100796.80;216933;1263;140912;-74
2024/03/07 08:39:38;;;;;;;19.30;12.20;;;;;;;5.11;70.94;100791.81;216785;1263;142242;-74
2024/03/07 08:44:42;;;;;;;19.00;12.40;;;;;;;5.28;71.09;100793.86;217731;1260;141500;-73
2024/03/07 08:49:47;;;;;;;22.90;12.80;;;;;;;5.40;70.13;100792.17;217634;1261;140444;-72
2024/03/07 08:54:51;;;;;;;19.30;11.80;;;;;;;5.35;69.84;100796.72;217322;1261;140276;-72
2024/03/07 08:59:55;;;;;;;25.60;14.10;;;;;;;5.37;69.70;100793.66;217716;1263;140279;-77
2024/03/07 09:04:59;;;;;;;18.70;13.90;;;;;;;5.32;69.55;100795.52;217394;1260;139962;-73
2024/03/07 09:10:04;;;;;;;19.00;13.00;;;;;;;5.27;69.10;100793.23;217089;1260;140367;-72
2024/03/07 09:15:10;;;;;;;15.00;10.80;;;;;;;5.34;69.16;100791.08;216999;1261;140817;-75
2024/03/07 09:20:14;;;;;;;19.00;12.90;;;;;;;5.51;69.20;100789.85;217804;1259;140840;-74
2024/03/07 09:25:19;;;;;;;19.60;12.00;;;;;;;5.66;69.34;100790.40;218695;1260;140750;-73
2024/03/07 09:30:26;;;;;;;28.00;16.50;;;;;;;5.74;68.71;100793.11;217457;1259;141299;-74
2024/03/07 09:35:29;;;;;;;19.60;12.40;;;;;;;5.52;68.17;100793.97;217944;1260;139865;-73
2024/03/07 09:40:33;;;;;;;24.50;15.60;;;;;;;5.34;68.08;100796.66;217114;1259;139590;-72
2024/03/07 09:45:40;;;;;;;24.70;14.80;;;;;;;5.26;68.38;100800.96;217517;1264;140190;-71
2024/03/07 09:50:51;;;;;;;19.00;13.80;;;;;;;5.23;68.27;100804.70;216951;1263;141289;-73
2024/03/07 09:55:57;;;;;;;26.60;15.90;;;;;;;5.15;68.49;100807.92;216683;1263;142029;-74
2024/03/07 10:01:02;;;;;;;21.00;12.30;;;;;;;5.24;68.74;100802.84;216911;1263;141887;-74
2024/03/07 10:06:09;;;;;;;21.20;13.60;;;;;;;5.34;68.50;100806.74;216724;1264;141241;-74
2024/03/07 10:11:14;;;;;;;20.10;13.30;;;;;;;5.31;68.11;100803.63;216770;1262;141834;-73
2024/03/07 10:16:19;;;;;;;23.80;14.90;;;;;;;5.48;68.69;100801.10;216975;1263;141273;-74
2024/03/07 10:21:24;;;;;;;25.80;15.30;;;;;;;5.52;68.42;100803.49;216910;1261;139682;-74
2024/03/07 10:26:28;;;;;;;22.60;15.70;;;;;;;5.58;68.00;100795.14;218054;1260;140532;-73
2024/03/07 10:31:33;;;;;;;19.10;13.40;;;;;;;5.65;67.85;100792.25;216879;1261;139561;-75
2024/03/07 10:36:43;;;;;;;17.10;12.80;;;;;;;5.75;67.47;100793.45;217085;1261;140431;-74
2024/03/07 10:41:49;;;;;;;19.20;10.90;;;;;;;5.80;67.35;100792.96;216938;1263;140890;-74
2024/03/07 10:46:55;;;;;;;20.80;13.10;;;;;;;5.90;66.82;100793.00;216825;1260;141069;-74
2024/03/07 10:52:10;;;;;;;21.80;15.40;;;;;;;5.99;66.51;100796.48;217428;1260;138901;-74
2024/03/07 10:57:29;;;;;;;21.90;13.50;;;;;;;6.12;66.53;100799.83;216746;1260;142020;-77
2024/03/07 11:02:44;;;;;;;21.00;13.00;;;;;;;6.21;66.32;100801.66;217199;1261;140743;-76
2024/03/07 11:07:50;;;;;;;22.60;14.30;;;;;;;6.01;64.84;100796.95;216996;1262;139343;-75
2024/03/07 11:12:55;;;;;;;20.40;12.40;;;;;;;5.87;65.32;100796.45;216773;1263;139951;-75
2024/03/07 11:17:59;;;;;;;21.10;12.80;;;;;;;5.92;65.47;100797.25;219908;1260;140149;-75
2024/03/07 11:23:38;;;;;;;23.20;13.70;;;;;;;5.95;65.30;100789.52;219910;1263;139735;-76
2024/03/07 11:28:43;;;;;;;21.50;14.50;;;;;;;6.07;65.20;100782.12;219828;1260;139431;-73
2024/03/07 11:34:16;;;;;;;27.40;16.10;;;;;;;6.12;65.05;100780.40;217415;1260;140197;-74
2024/03/07 11:39:48;;;;;;;22.20;13.40;;;;;;;6.31;65.12;100781.71;216862;1261;140248;-75
2024/03/07 11:44:56;;;;;;;19.70;12.90;;;;;;;6.36;64.47;100782.52;217732;1261;139399;-74
2024/03/07 11:50:02;;;;;;;22.70;15.00;;;;;;;6.38;64.04;100783.25;216820;1263;139256;-74
2024/03/07 11:55:06;;;;;;;26.90;13.90;;;;;;;6.33;64.01;100776.89;216848;1259;139438;-74
2024/03/07 12:00:11;;;;;;;33.10;13.80;;;;;;;6.38;64.08;100772.77;216876;1263;140259;-73
2024/03/07 12:05:19;;;;;;;21.30;14.90;;;;;;;6.46;63.87;100767.89;217593;1260;140202;-73
2024/03/07 12:10:24;;;;;;;21.20;13.60;;;;;;;6.47;63.46;100761.23;216839;1261;139564;-73
2024/03/07 12:15:30;;;;;;;30.70;12.80;;;;;;;6.49;63.79;100759.25;216916;1260;139545;-73
2024/03/07 12:20:38;;;;;;;21.10;13.70;;;;;;;6.51;63.51;100753.94;216858;1263;139712;-74
2024/03/07 12:25:43;;;;;;;17.50;11.60;;;;;;;6.59;63.76;100755.04;216998;1261;139835;-75
2024/03/07 12:30:47;;;;;;;16.50;11.20;;;;;;;6.66;63.16;100746.38;216862;1263;140273;-76
2024/03/07 12:35:53;;;;;;;20.10;12.20;;;;;;;6.61;62.82;100745.85;216990;1260;140128;-71
2024/03/07 12:41:13;;;;;;;15.50;12.10;;;;;;;6.60;62.32;100743.67;217035;1264;138728;-72
2024/03/07 12:46:19;;;;;;;16.60;10.90;;;;;;;6.57;61.66;100738.67;217167;1263;140157;-72
2024/03/07 12:51:24;;;;;;;17.20;12.30;;;;;;;6.51;61.53;100739.04;216913;1260;139783;-72
2024/03/07 12:56:34;;;;;;;19.80;13.00;;;;;;;6.48;61.47;100729.20;217070;1260;140311;-71
2024/03/07 13:01:41;;;;;;;24.40;13.70;;;;;;;6.45;61.46;100728.84;217192;1260;140297;-72
2024/03/07 13:06:47;;;;;;;21.20;11.80;;;;;;;6.43;61.43;100733.55;217051;1260;139585;-72
2024/03/07 13:11:52;;;;;;;20.00;11.90;;;;;;;6.49;61.30;100729.88;219368;1259;140201;-72
2024/03/07 13:16:56;;;;;;;15.00;10.30;;;;;;;6.51;61.18;100732.52;216919;1259;139874;-73
2024/03/07 13:22:06;;;;;;;17.20;11.90;;;;;;;6.53;61.75;100731.08;218290;1261;139590;-74
2024/03/07 13:27:11;;;;;;;17.70;12.60;;;;;;;6.56;61.17;100730.17;216878;1263;139336;-74
2024/03/07 13:32:15;;;;;;;19.90;12.50;;;;;;;6.55;61.14;100729.05;217986;1260;141346;-74
2024/03/07 13:37:22;;;;;;;13.50;10.10;;;;;;;6.55;61.52;100726.54;216822;1260;140128;-74
2024/03/07 13:42:28;;;;;;;17.10;9.90;;;;;;;6.52;60.67;100720.70;217622;1262;140302;-74
2024/03/07 13:47:31;;;;;;;18.10;9.40;;;;;;;6.53;61.11;100721.30;217086;1261;140955;-72
2024/03/07 13:52:43;;;;;;;25.20;14.50;;;;;;;6.53;60.56;100715.73;217356;1262;139652;-73
2024/03/07 13:57:56;;;;;;;16.00;11.50;;;;;;;6.46;60.71;100716.48;217046;1263;140138;-74
2024/03/07 14:03:16;;;;;;;16.30;10.80;;;;;;;6.47;61.01;100718.92;217098;1263;141101;-72
2024/03/07 14:08:44;;;;;;;18.20;11.90;;;;;;;6.45;60.51;100717.56;218254;1260;140265;-73
2024/03/07 14:14:19;;;;;;;15.50;8.80;;;;;;;6.38;60.52;100715.04;217101;1260;141230;-72
2024/03/07 14:20:00;;;;;;;17.10;9.80;;;;;;;6.35;60.54;100717.03;217486;1260;141031;-74
2024/03/07 14:25:27;;;;;;;14.30;10.00;;;;;;;6.29;60.44;100707.79;217121;1261;139150;-73
2024/03/07 14:30:58;;;;;;;14.20;8.90;;;;;;;6.24;60.21;100706.58;216990;1260;139615;-73
2024/03/07 14:36:13;;;;;;;13.50;8.80;;;;;;;6.21;60.16;100703.39;217110;1264;141966;-73
2024/03/07 14:41:41;;;;;;;20.70;12.20;;;;;;;6.14;60.40;100699.66;217053;1264;140293;-74
2024/03/07 14:46:53;;;;;;;14.00;9.50;;;;;;;6.14;60.72;100700.02;217128;1259;139318;-77
2024/03/07 14:52:10;;;;;;;13.30;6.80;;;;;;;6.07;59.75;100695.98;217185;1263;139642;-72
2024/03/07 14:57:20;;;;;;;17.70;9.80;;;;;;;5.92;60.18;100690.17;217312;1259;139275;-73
2024/03/07 15:02:28;;;;;;;15.80;9.90;;;;;;;5.88;60.16;100685.30;217227;1259;140083;-71
2024/03/07 15:07:36;;;;;;;12.60;8.50;;;;;;;5.85;60.40;100682.21;217064;1260;139443;-78
2024/03/07 15:12:50;;;;;;;18.60;11.10;;;;;;;5.79;60.76;100681.64;217385;1260;139274;-73
2024/03/07 15:17:58;;;;;;;11.30;7.50;;;;;;;5.70;60.46;100680.95;217253;1260;140501;-76
2024/03/07 15:23:03;;;;;;;11.40;7.60;;;;;;;5.59;60.51;100681.27;217352;1260;139072;-75
2024/03/07 15:28:08;;;;;;;16.20;10.50;;;;;;;5.53;60.59;100676.96;217149;1259;141415;-74
2024/03/07 15:33:15;;;;;;;14.90;7.90;;;;;;;5.45;60.35;100676.45;218208;1262;160625;-74
2024/03/07 15:38:19;;;;;;;10.70;7.60;;;;;;;5.34;60.35;100673.69;217243;1261;139187;-73
2024/03/07 15:43:24;;;;;;;14.10;6.80;;;;;;;5.23;60.94;100676.55;217999;1260;140146;-74
2024/03/07 15:48:28;;;;;;;12.10;8.00;;;;;;;5.09;60.45;100677.78;217687;1259;140738;-73
2024/03/07 15:53:34;;;;;;;15.50;8.20;;;;;;;4.92;60.35;100682.09;217275;1262;139793;-74
2024/03/07 15:58:39;;;;;;;14.50;7.70;;;;;;;4.80;60.41;100681.54;217493;1259;139263;-73
2024/03/07 16:03:46;;;;;;;9.50;6.30;;;;;;;4.69;60.66;100677.83;218021;1259;139678;-74
2024/03/07 16:08:52;;;;;;;12.20;8.00;;;;;;;4.55;60.54;100681.38;217326;1259;233217;-74
2024/03/07 16:13:57;;;;;;;15.40;7.60;;;;;;;4.44;60.71;100686.08;217132;1263;140317;-73
2024/03/07 16:19:00;;;;;;;13.30;7.40;;;;;;;4.31;60.60;100685.10;217248;1263;140471;-75
2024/03/07 16:24:06;;;;;;;14.20;6.50;;;;;;;4.19;60.72;100680.97;217184;1260;140692;-72
2024/03/07 16:29:11;;;;;;;11.70;7.60;;;;;;;4.07;60.77;100683.52;216854;1262;139440;-73
2024/03/07 16:34:16;;;;;;;13.50;8.20;;;;;;;3.93;60.84;100685.09;217671;1259;140207;-71
2024/03/07 16:39:33;;;;;;;9.80;6.60;;;;;;;3.83;61.44;100689.80;217237;1259;140335;-73
2024/03/07 16:44:38;;;;;;;13.10;7.40;;;;;;;3.72;62.10;100696.59;217369;1259;139662;-74
2024/03/07 16:49:42;;;;;;;9.20;7.10;;;;;;;3.56;62.49;100694.22;217425;1259;140348;-75
2024/03/07 16:54:47;;;;;;;12.70;8.30;;;;;;;3.40;62.99;100691.48;217260;1263;139911;-73
2024/03/07 16:59:51;;;;;;;15.20;8.10;;;;;;;3.23;63.49;100690.79;216876;1260;139358;-74
2024/03/07 17:04:58;;;;;;;17.50;11.90;;;;;;;3.07;63.78;100695.90;217972;1261;140205;-74
2024/03/07 17:10:01;;;;;;;16.90;10.40;;;;;;;2.91;64.12;100697.52;218004;1261;140224;-74
2024/03/07 17:15:06;;;;;;;20.30;13.40;;;;;;;2.77;64.34;100702.00;218010;1259;140537;-74
2024/03/07 17:20:10;;;;;;;20.20;12.90;;;;;;;2.63;64.65;100708.91;219879;1261;140330;-74
2024/03/07 17:25:16;;;;;;;23.00;14.20;;;;;;;2.50;65.30;100704.37;219035;1259;140457;-73
2024/03/07 17:30:22;;;;;;;20.10;13.40;;;;;;;2.37;65.45;100706.58;218840;1260;306713;-73
2024/03/07 17:35:27;;;;;;;23.80;12.50;;;;;;;2.23;65.80;100708.17;216650;1260;140605;-73
2024/03/07 17:40:33;;;;;;;19.30;10.40;;;;;;;2.06;65.35;100710.46;217984;1260;140241;-73
2024/03/07 17:45:40;;;;;;;16.60;9.50;;;;;;;1.89;65.95;100712.25;216685;1261;139799;-73
2024/03/07 17:50:44;;;;;;;15.30;9.10;;;;;;;1.70;66.38;100716.27;218177;1261;141911;-73
2024/03/07 17:55:48;;;;;;;15.80;5.90;;;;;;;1.44;66.24;100714.10;216950;1262;139878;-72
2024/03/07 18:00:53;;;;;;;11.40;6.30;;;;;;;1.20;66.84;100717.23;216795;1263;140272;-72
2024/03/07 18:06:00;;;;;;;11.50;7.40;;;;;;;1.03;67.68;100713.29;217367;1259;140472;-73
2024/03/07 18:11:06;;;;;;;;;;;;;;;0.89;67.95;100716.38;217036;1263;140757;-74
2024/03/07 18:16:13;;;;;;;15.80;9.00;;;;;;;0.80;68.32;100714.64;217096;1264;126844;-73
2024/03/07 18:21:18;;;;;;;20.50;8.60;;;;;;;0.74;68.83;100717.48;217279;1259;140977;-74
2024/03/07 18:26:24;;;;;;;17.00;9.00;;;;;;;0.67;68.98;100714.45;217734;1263;139917;-73
2024/03/07 18:31:30;;;;;;;17.90;8.40;;;;;;;0.62;69.51;100718.80;217127;1262;140718;-73
2024/03/07 18:36:35;;;;;;;36.70;13.50;;;;;;;0.57;69.90;100714.98;217860;1260;141000;-73
2024/03/07 18:41:42;;;;;;;22.30;9.90;;;;;;;0.37;69.20;100716.64;218599;1259;140678;-73
2024/03/07 18:46:47;;;;;;;16.60;9.80;;;;;;;0.16;69.63;100716.34;216797;1259;140629;-73
2024/03/07 18:51:54;;;;;;;15.90;9.70;;;;;;;-0.10;69.83;100715.27;216908;1260;140476;-73
2024/03/07 18:56:58;;;;;;;25.20;16.80;;;;;;;-0.21;70.64;100715.48;217126;1260;141013;-73
2024/03/07 19:02:10;;;;;;;43.90;20.10;;;;;;;-0.24;71.29;100721.32;216925;1259;141346;-73
2024/03/07 19:07:19;;;;;;;40.20;20.10;;;;;;;-0.25;71.59;100725.94;216795;1262;140471;-71
2024/03/07 19:12:23;;;;;;;40.70;20.30;;;;;;;-0.33;71.81;100728.81;218530;1263;141213;-71
2024/03/07 19:17:28;;;;;;;35.90;19.70;;;;;;;-0.34;72.29;100728.21;216916;1258;140152;-71
2024/03/07 19:22:34;;;;;;;25.60;14.80;;;;;;;-0.41;72.23;100729.47;216798;1259;140689;-72
2024/03/07 19:27:41;;;;;;;36.50;17.20;;;;;;;-0.46;72.49;100725.45;216754;1259;141629;-71
2024/03/07 19:32:46;;;;;;;36.80;17.50;;;;;;;-0.59;72.38;100730.86;217035;1263;140113;-71
2024/03/07 19:37:51;;;;;;;35.10;13.30;;;;;;;-0.73;72.77;100737.87;216917;1259;140968;-71
2024/03/07 19:43:01;;;;;;;24.30;13.60;;;;;;;-0.85;73.10;100737.91;217119;1261;140143;-71
2024/03/07 19:48:06;;;;;;;29.80;16.50;;;;;;;-0.91;73.39;100739.83;216979;1262;142075;-71
2024/03/07 19:53:14;;;;;;;30.90;17.60;;;;;;;-0.98;73.45;100739.45;216986;1261;140145;-74
2024/03/07 19:58:19;;;;;;;44.40;25.20;;;;;;;-1.01;73.75;100740.73;217613;1263;141014;-70
2024/03/07 20:03:28;;;;;;;43.10;23.80;;;;;;;-0.99;74.18;100741.81;217060;1259;140196;-71
2024/03/07 20:08:31;;;;;;;49.90;25.70;;;;;;;-1.08;74.31;100743.89;217256;1259;140930;-72
2024/03/07 20:13:39;;;;;;;53.60;28.60;;;;;;;-1.20;73.69;100744.63;216954;1259;140332;-72
2024/03/07 20:18:46;;;;;;;67.50;49.60;;;;;;;-1.33;73.97;100748.95;217009;1263;141728;-72
2024/03/07 20:23:51;;;;;;;62.60;30.90;;;;;;;-1.40;74.30;100751.85;216949;1262;140425;-71
2024/03/07 20:28:55;;;;;;;63.90;32.20;;;;;;;-1.47;74.58;100749.30;217054;1263;141663;-71
2024/03/07 20:34:00;;;;;;;60.10;35.40;;;;;;;-1.57;74.56;100744.40;216837;1263;140631;-73
2024/03/07 20:39:08;;;;;;;64.70;31.20;;;;;;;-1.63;75.09;100748.59;218200;1259;141366;-72
2024/03/07 20:44:13;;;;;;;;;;;;;;;-1.70;75.03;100742.96;217297;1259;141120;-70
2024/03/07 20:49:18;;;;;;;56.50;28.60;;;;;;;-1.81;75.21;100742.25;218222;1262;127315;-72
2024/03/07 20:54:22;;;;;;;65.10;32.50;;;;;;;-1.85;75.55;100738.11;216730;1259;140607;-71
2024/03/07 20:59:27;;;;;;;72.30;34.10;;;;;;;-1.87;75.61;100738.30;216804;1259;140285;-72
2024/03/07 21:04:31;;;;;;;78.30;36.20;;;;;;;-1.93;75.68;100739.83;218513;1259;220668;-71
2024/03/07 21:09:38;;;;;;;94.10;43.60;;;;;;;-1.95;76.15;100736.36;219423;1259;140464;-69
2024/03/07 21:14:43;;;;;;;121.50;51.80;;;;;;;-1.94;76.10;100735.75;216904;1261;142289;-71
2024/03/07 21:19:47;;;;;;;97.90;43.50;;;;;;;-1.96;76.29;100739.05;218728;1260;141241;-69
2024/03/07 21:24:53;;;;;;;100.60;48.00;;;;;;;-1.93;76.64;100740.39;216814;1260;140470;-71
2024/03/07 21:29:59;;;;;;;72.70;35.90;;;;;;;-1.90;76.72;100741.17;217252;1260;140616;-73
2024/03/07 21:35:04;;;;;;;252.90;68.40;;;;;;;-1.92;76.73;100743.08;217079;1260;141587;-69
2024/03/07 21:40:15;;;;;;;80.10;40.80;;;;;;;-1.96;76.84;100740.27;217528;1262;140017;-74
2024/03/07 21:45:21;;;;;;;93.10;39.30;;;;;;;-1.97;76.91;100738.65;217327;1263;141119;-71
2024/03/07 21:50:26;;;;;;;69.30;36.80;;;;;;;-2.04;76.87;100740.76;217418;1259;141482;-74
2024/03/07 21:55:30;;;;;;;96.20;43.30;;;;;;;-2.15;76.98;100738.36;217644;1259;141317;-74
2024/03/07 22:00:35;;;;;;;87.80;43.00;;;;;;;-2.26;76.92;100736.87;217439;1263;141212;-71
2024/03/07 22:05:42;;;;;;;91.10;47.20;;;;;;;-2.33;77.18;100736.10;217360;1260;140279;-73
2024/03/07 22:10:48;;;;;;;113.90;56.60;;;;;;;-2.38;77.52;100731.09;217388;1259;140126;-72
2024/03/07 22:15:51;;;;;;;159.00;66.50;;;;;;;-2.38;77.85;100734.16;216955;1260;141317;-74
2024/03/07 22:20:55;;;;;;;121.80;53.10;;;;;;;-2.35;78.07;100734.73;217186;1262;141298;-71
2024/03/07 22:26:00;;;;;;;99.20;47.90;;;;;;;-2.36;78.08;100728.67;216918;1263;140678;-71
2024/03/07 22:31:04;;;;;;;88.40;42.40;;;;;;;-2.39;78.27;100729.04;217076;1259;140346;-72
2024/03/07 22:36:09;;;;;;;68.30;38.70;;;;;;;-2.41;78.33;100727.11;217292;1262;140814;-72
2024/03/07 22:41:14;;;;;;;75.30;38.90;;;;;;;-2.51;78.06;100725.76;217408;1262;140356;-74
2024/03/07 22:46:18;;;;;;;82.80;41.10;;;;;;;-2.63;77.94;100723.41;217171;1259;140062;-71
2024/03/07 22:51:22;;;;;;;80.20;39.70;;;;;;;-2.68;78.31;100726.80;217416;1263;140888;-71
2024/03/07 22:56:29;;;;;;;75.80;41.00;;;;;;;-2.69;78.48;100724.76;217116;1262;140392;-70
2024/03/07 23:01:33;;;;;;;;;;;;;;;-2.68;78.48;100722.65;217067;1264;163228;-70
2024/03/07 23:06:40;;;;;;;617.20;208.20;;;;;;;-2.77;78.58;100718.28;218684;1260;127165;-71